createdAt,value
2018-11-02T00:01:46.397Z,98343.18
2018-11-02T00:04:15.159Z,98354.31
2018-11-02T00:06:43.630Z,98358.44
2018-11-02T00:09:12.126Z,98368.80
2018-11-02T00:11:40.617Z,98367.52
2018-11-02T00:14:09.092Z,98371.72
2018-11-02T00:16:37.585Z,98383.70
2018-11-02T00:19:06.512Z,98390.30
2018-11-02T00:21:35.000Z,98391.28
2018-11-02T00:24:03.715Z,98400.27
2018-11-02T00:26:32.228Z,98390.31
2018-11-02T00:29:00.700Z,98398.23
2018-11-02T00:31:29.307Z,98399.56
2018-11-02T00:33:57.764Z,98405.45
2018-11-02T00:36:26.244Z,98408.93
2018-11-02T00:38:54.731Z,98413.61
2018-11-02T00:41:23.242Z,98415.06
2018-11-02T00:43:51.773Z,98415.37
2018-11-02T00:46:20.335Z,98418.15
2018-11-02T00:48:48.843Z,98428.58
2018-11-02T00:51:17.327Z,98431.37
2018-11-02T00:53:45.819Z,98440.02
2018-11-02T00:56:14.303Z,98443.13
2018-11-02T00:58:42.795Z,98451.67
2018-11-02T01:01:11.285Z,98457.63
2018-11-02T01:03:39.843Z,98469.30
2018-11-02T01:06:08.323Z,98476.78
2018-11-02T01:08:36.828Z,98469.92
2018-11-02T01:11:05.847Z,98478.32
2018-11-02T01:13:34.557Z,98489.98
2018-11-02T01:16:03.267Z,98483.38
2018-11-02T01:18:31.753Z,98496.48
2018-11-02T01:21:00.241Z,98496.75
2018-11-02T01:23:28.696Z,98509.05
2018-11-02T01:25:57.241Z,98507.01
2018-11-02T01:28:25.763Z,98503.66
2018-11-02T01:30:54.239Z,98499.03
2018-11-02T01:33:28.034Z,98500.91
2018-11-02T01:35:56.715Z,98512.20
2018-11-02T01:38:25.195Z,98500.02
2018-11-02T01:40:53.652Z,98512.11
2018-11-02T01:43:22.578Z,98509.54
2018-11-02T01:45:51.870Z,98511.94
2018-11-02T01:48:20.393Z,98514.33
2018-11-02T01:51:03.579Z,98518.03
2018-11-02T01:53:32.116Z,98517.39
2018-11-02T01:56:00.615Z,98505.03
2018-11-02T01:58:29.643Z,98507.45
2018-11-02T02:00:58.144Z,98501.33
2018-11-02T02:04:29.339Z,98504.19
2018-11-02T02:06:57.940Z,98505.31
2018-11-02T02:09:26.440Z,98506.75
2018-11-02T02:11:55.035Z,98513.37
2018-11-02T02:14:23.599Z,98513.72
2018-11-02T02:16:52.732Z,98512.73
2018-11-02T02:19:21.290Z,98514.94
2018-11-02T02:21:49.837Z,98516.48
2018-11-02T02:24:18.316Z,98512.90
2018-11-02T02:26:46.841Z,98504.12
2018-11-02T02:29:15.460Z,98505.85
2018-11-02T02:31:43.940Z,98513.08
2018-11-02T02:34:12.836Z,98521.47
2018-11-02T02:36:41.644Z,98526.11
2018-11-02T02:39:10.938Z,98533.42
2018-11-02T02:41:40.010Z,98531.16
2018-11-02T02:44:08.747Z,98529.00
2018-11-02T02:46:37.267Z,98531.30
2018-11-02T02:49:06.688Z,98534.55
2018-11-02T02:51:35.201Z,98542.36
2018-11-02T02:54:04.123Z,98550.89
2018-11-02T02:56:32.632Z,98547.38
2018-11-02T02:59:01.368Z,98539.70
2018-11-02T03:01:29.887Z,98542.11
2018-11-02T03:03:58.391Z,98556.19
2018-11-02T03:06:27.139Z,98573.48
2018-11-02T03:08:56.015Z,98581.16
2018-11-02T03:11:24.801Z,98584.14
2018-11-02T03:13:53.291Z,98589.84
2018-11-02T03:16:21.911Z,98585.23
2018-11-02T03:18:50.493Z,98597.39
2018-11-02T03:21:18.962Z,98599.42
2018-11-02T03:23:47.475Z,98599.91
2018-11-02T03:26:15.971Z,98600.07
2018-11-02T03:28:44.468Z,98589.78
2018-11-02T03:31:13.068Z,98585.84
2018-11-02T03:33:41.737Z,98595.00
2018-11-02T03:36:10.266Z,98593.01
2018-11-02T03:38:38.858Z,98592.41
2018-11-02T03:41:07.554Z,98589.70
2018-11-02T03:43:36.085Z,98589.17
2018-11-02T03:46:04.915Z,98594.46
2018-11-02T03:48:33.708Z,98588.31
2018-11-02T03:51:02.245Z,98599.88
2018-11-02T03:53:30.730Z,98593.38
2018-11-02T03:55:59.743Z,98594.75
2018-11-02T03:58:28.236Z,98590.77
2018-11-02T04:00:57.047Z,98593.67
2018-11-02T04:03:25.535Z,98584.78
2018-11-02T04:05:54.084Z,98591.69
2018-11-02T04:08:22.689Z,98584.05
2018-11-02T04:10:51.141Z,98588.36
2018-11-02T04:13:19.690Z,98591.23
2018-11-02T04:15:48.224Z,98604.83
2018-11-02T04:18:16.722Z,98600.98
2018-11-02T04:20:45.288Z,98600.38
2018-11-02T04:23:13.801Z,98617.45
2018-11-02T04:25:42.725Z,98618.05
2018-11-02T04:28:11.268Z,98628.48
2018-11-02T04:30:39.798Z,98642.76
2018-11-02T04:33:08.511Z,98632.09
2018-11-02T04:35:37.196Z,98630.58
2018-11-02T04:38:06.147Z,98637.04
2018-11-02T04:40:34.703Z,98637.77
2018-11-02T04:43:03.184Z,98630.19
2018-11-02T04:45:36.885Z,98641.11
2018-11-02T04:48:05.953Z,98648.83
2018-11-02T04:50:34.515Z,98647.67
2018-11-02T04:53:03.791Z,98657.59
2018-11-02T04:55:32.276Z,98656.48
2018-11-02T04:58:01.099Z,98654.03
2018-11-02T05:00:29.772Z,98657.10
2018-11-02T05:02:58.707Z,98660.42
2018-11-02T05:05:27.367Z,98666.11
2018-11-02T05:07:55.868Z,98668.19
2018-11-02T05:10:24.331Z,98666.36
2018-11-02T05:12:52.837Z,98664.30
2018-11-02T05:15:21.302Z,98665.78
2018-11-02T05:17:50.039Z,98668.38
2018-11-02T05:20:18.550Z,98668.45
2018-11-02T05:22:47.055Z,98673.94
2018-11-02T05:25:15.675Z,98675.83
2018-11-02T05:27:44.516Z,98672.45
2018-11-02T05:30:13.086Z,98676.05
2018-11-02T05:32:41.581Z,98677.56
2018-11-02T05:35:10.126Z,98680.90
2018-11-02T05:37:38.604Z,98681.04
2018-11-02T05:40:08.494Z,98681.24
2018-11-02T05:42:37.010Z,98683.51
2018-11-02T05:45:06.764Z,98686.73
2018-11-02T05:47:35.431Z,98682.86
2018-11-02T05:50:03.933Z,98689.86
2018-11-02T05:52:32.627Z,98691.52
2018-11-02T05:55:01.348Z,98693.17
2018-11-02T05:57:29.825Z,98694.78
2018-11-02T05:59:58.379Z,98694.77
2018-11-02T06:02:26.853Z,98698.78
2018-11-02T06:04:55.990Z,98704.00
2018-11-02T06:07:24.489Z,98700.78
2018-11-02T06:09:52.968Z,98702.86
2018-11-02T06:12:21.511Z,98703.32
2018-11-02T06:14:50.008Z,98700.06
2018-11-02T06:17:18.667Z,98696.81
2018-11-02T06:19:47.287Z,98697.96
2018-11-02T06:22:16.215Z,98707.20
2018-11-02T06:24:45.020Z,98700.94
2018-11-02T06:27:13.591Z,98712.55
2018-11-02T06:29:42.138Z,98713.09
2018-11-02T06:32:10.629Z,98712.97
2018-11-02T06:34:39.412Z,98711.95
2018-11-02T06:37:08.256Z,98705.11
2018-11-02T06:39:36.762Z,98702.11
2018-11-02T06:42:05.660Z,98705.30
2018-11-02T06:44:34.366Z,98697.59
2018-11-02T06:47:02.882Z,98689.63
2018-11-02T06:49:31.363Z,98686.52
2018-11-02T06:51:59.815Z,98683.47
2018-11-02T06:54:28.301Z,98674.41
2018-11-02T06:56:56.801Z,98686.98
2018-11-02T06:59:25.533Z,98692.18
2018-11-02T07:01:53.917Z,98697.54
2018-11-02T07:04:22.375Z,98701.88
2018-11-02T07:06:50.924Z,98715.38
2018-11-02T07:09:19.407Z,98714.77
2018-11-02T07:11:47.892Z,98710.78
2018-11-02T07:14:16.437Z,98724.03
2018-11-02T07:16:45.371Z,98729.94
2018-11-02T07:19:13.840Z,98738.00
2018-11-02T07:21:42.346Z,98738.80
2018-11-02T07:24:10.894Z,98753.75
2018-11-02T07:26:39.375Z,98758.28
2018-11-02T07:29:08.956Z,98764.41
2018-11-02T07:31:37.501Z,98762.12
2018-11-02T07:34:06.782Z,98756.77
2018-11-02T07:36:35.362Z,98754.09
2018-11-02T07:39:04.631Z,98757.48
2018-11-02T07:41:33.096Z,98750.59
2018-11-02T07:44:01.607Z,98746.88
2018-11-02T07:46:30.070Z,98740.64
2018-11-02T07:48:58.572Z,98737.17
2018-11-02T07:51:27.229Z,98738.55
2018-11-02T07:53:55.934Z,98729.72
2018-11-02T07:56:24.459Z,98730.22
2018-11-02T07:58:53.327Z,98742.58
2018-11-02T08:01:21.985Z,98744.01
2018-11-02T08:03:50.501Z,98747.44
2018-11-02T08:06:18.974Z,98746.87
2018-11-02T08:08:47.936Z,98754.73
2018-11-02T08:11:16.534Z,98758.14
2018-11-02T08:13:45.009Z,98764.59
2018-11-02T08:16:13.519Z,98764.95
2018-11-02T08:18:41.977Z,98769.06
2018-11-02T08:21:10.453Z,98767.12
2018-11-02T08:23:38.918Z,98747.66
2018-11-02T08:26:07.443Z,98738.95
2018-11-02T08:28:35.929Z,98742.93
2018-11-02T08:31:04.421Z,98748.97
2018-11-02T08:33:32.893Z,98754.61
2018-11-02T08:36:01.517Z,98759.55
2018-11-02T08:38:29.984Z,98756.91
2018-11-02T08:40:59.140Z,98757.97
2018-11-02T08:43:27.579Z,98747.55
2018-11-02T08:45:56.219Z,98746.38
2018-11-02T08:48:24.669Z,98737.75
2018-11-02T08:50:53.133Z,98741.70
2018-11-02T08:53:21.631Z,98736.41
2018-11-02T08:55:50.184Z,98735.33
2018-11-02T08:58:18.834Z,98731.26
2018-11-02T09:00:47.427Z,98742.39
2018-11-02T09:03:15.899Z,98743.74
2018-11-02T09:05:44.375Z,98736.07
2018-11-02T09:08:12.839Z,98740.77
2018-11-02T09:10:41.294Z,98745.62
2018-11-02T09:13:10.088Z,98742.44
2018-11-02T09:15:38.600Z,98752.67
2018-11-02T09:18:07.092Z,98752.43
2018-11-02T09:20:35.680Z,98751.59
2018-11-02T09:23:04.133Z,98757.38
2018-11-02T09:25:32.665Z,98765.06
2018-11-02T09:28:01.420Z,98762.81
2018-11-02T09:30:29.847Z,98763.72
2018-11-02T09:32:58.422Z,98761.95
2018-11-02T09:35:26.900Z,98754.52
2018-11-02T09:37:55.390Z,98761.47
2018-11-02T09:40:23.945Z,98768.16
2018-11-02T09:42:52.535Z,98771.52
2018-11-02T09:45:20.826Z,98780.63
2018-11-02T09:47:49.314Z,98780.84
2018-11-02T09:50:17.794Z,98773.91
2018-11-02T09:52:46.308Z,98773.95
2018-11-02T09:55:15.887Z,98778.71
2018-11-02T09:57:45.642Z,98771.89
2018-11-02T10:00:14.852Z,98771.54
2018-11-02T10:02:43.371Z,98763.11
2018-11-02T10:05:12.683Z,98753.61
2018-11-02T10:07:41.749Z,98748.08
2018-11-02T10:10:11.873Z,98743.63
2018-11-02T10:12:40.646Z,98733.20
2018-11-02T10:15:11.962Z,98728.70
2018-11-02T10:17:40.486Z,98723.41
2018-11-02T10:20:09.937Z,98714.25
2018-11-02T10:22:38.711Z,98703.34
2018-11-02T10:25:08.158Z,98687.88
2018-11-02T10:27:37.013Z,98676.28
2018-11-02T10:30:07.643Z,98674.45
2018-11-02T10:32:36.175Z,98665.61
2018-11-02T10:35:05.016Z,98665.99
2018-11-02T10:37:33.684Z,98669.29
2018-11-02T10:40:02.404Z,98673.94
2018-11-02T10:42:30.962Z,98678.76
2018-11-02T10:44:59.592Z,98684.77
2018-11-02T10:47:28.036Z,98686.72
2018-11-02T10:49:56.554Z,98680.26
2018-11-02T10:52:25.047Z,98678.76
2018-11-02T10:54:53.608Z,98677.91
2018-11-02T10:57:22.100Z,98681.24
2018-11-02T10:59:50.578Z,98676.40
2018-11-02T11:02:24.868Z,98669.61
2018-11-02T11:04:53.348Z,98670.19
2018-11-02T11:07:21.914Z,98669.17
2018-11-02T11:09:50.421Z,98670.57
2018-11-02T11:12:19.092Z,98672.65
2018-11-02T11:14:47.764Z,98668.51
2018-11-02T11:17:16.427Z,98670.77
2018-11-02T11:19:44.923Z,98676.02
2018-11-02T11:22:13.464Z,98686.13
2018-11-02T11:24:41.946Z,98689.48
2018-11-02T11:27:10.530Z,98683.07
2018-11-02T11:29:38.987Z,98692.98
2018-11-02T11:32:07.754Z,98703.16
2018-11-02T11:34:36.235Z,98695.85
2018-11-02T11:37:05.292Z,98694.64
2018-11-02T11:39:33.887Z,98707.11
2018-11-02T11:42:02.335Z,98702.06
2018-11-02T11:44:31.059Z,98710.85
2018-11-02T11:46:59.870Z,98706.47
2018-11-02T11:49:28.428Z,98705.16
2018-11-02T11:51:56.944Z,98700.34
2018-11-02T11:54:25.817Z,98693.96
2018-11-02T11:56:54.491Z,98684.11
2018-11-02T11:59:23.018Z,98647.27
2018-11-02T12:01:51.515Z,98681.92
2018-11-02T12:04:20.314Z,98682.83
2018-11-02T12:06:48.949Z,98682.48
2018-11-02T12:09:17.426Z,98686.83
2018-11-02T12:11:46.031Z,98679.09
2018-11-02T12:14:14.836Z,98672.28
2018-11-02T12:16:43.377Z,98666.99
2018-11-02T12:19:11.907Z,98669.56
2018-11-02T12:21:40.446Z,98672.36
2018-11-02T12:24:08.923Z,98675.89
2018-11-02T12:26:37.480Z,98676.58
2018-11-02T12:29:06.397Z,98663.58
2018-11-02T12:31:34.904Z,98660.50
2018-11-02T12:34:03.381Z,98661.98
2018-11-02T12:36:32.207Z,98666.28
2018-11-02T12:39:01.421Z,98660.04
2018-11-02T12:41:29.922Z,98654.72
2018-11-02T12:43:58.464Z,98649.80
2018-11-02T12:46:26.969Z,98657.78
2018-11-02T12:48:55.759Z,98662.61
2018-11-02T12:51:24.107Z,98667.52
2018-11-02T12:53:52.657Z,98669.23
2018-11-02T12:56:21.854Z,98660.61
2018-11-02T12:58:50.511Z,98666.09
2018-11-02T13:01:19.000Z,98668.27
2018-11-02T13:03:47.477Z,98672.00
2018-11-02T13:06:16.152Z,98621.39
2018-11-02T13:08:44.686Z,98657.67
2018-11-02T13:11:13.200Z,98654.79
2018-11-02T13:13:41.750Z,98660.33
2018-11-02T13:16:10.476Z,98654.16
2018-11-02T13:18:39.088Z,98658.39
2018-11-02T13:21:07.623Z,98658.25
2018-11-02T13:23:36.162Z,98656.24
2018-11-02T13:26:05.165Z,98660.59
2018-11-02T13:28:33.988Z,98668.16
2018-11-02T13:31:02.557Z,98673.06
2018-11-02T13:33:30.977Z,98672.98
2018-11-02T13:35:59.561Z,98671.86
2018-11-02T13:38:28.016Z,98675.41
2018-11-02T13:40:56.512Z,98681.94
2018-11-02T13:43:25.009Z,98685.74
2018-11-02T13:45:53.449Z,98691.38
2018-11-02T13:48:21.976Z,98689.81
2018-11-02T13:50:50.532Z,98682.98
2018-11-02T13:53:19.007Z,98685.45
2018-11-02T13:55:47.518Z,98680.05
2018-11-02T13:58:16.179Z,98679.49
2018-11-02T14:00:44.683Z,98679.08
2018-11-02T14:03:13.188Z,98681.02
2018-11-02T14:05:41.863Z,98682.25
2018-11-02T14:08:10.380Z,98682.12
2018-11-02T14:10:39.060Z,98672.95
2018-11-02T14:13:07.592Z,98660.50
2018-11-02T14:15:36.065Z,98653.77
2018-11-02T14:18:04.572Z,98641.66
2018-11-02T14:20:33.088Z,98644.28
2018-11-02T14:23:01.594Z,98652.08
2018-11-02T14:25:30.347Z,98652.52
2018-11-02T14:27:58.948Z,98648.44
2018-11-02T14:30:28.391Z,98661.42
2018-11-02T14:32:56.864Z,98676.16
2018-11-02T14:35:25.406Z,98674.73
2018-11-02T14:37:54.187Z,98677.95
2018-11-02T14:40:22.696Z,98686.49
2018-11-02T14:42:51.433Z,98688.78
2018-11-02T14:45:19.941Z,98693.03
2018-11-02T14:47:49.372Z,98685.94
2018-11-02T14:50:17.924Z,98679.98
2018-11-02T14:52:46.479Z,98674.48
2018-11-02T14:55:14.983Z,98664.56
2018-11-02T14:57:43.514Z,98665.98
2018-11-02T15:00:12.780Z,98670.80
2018-11-02T15:02:41.981Z,98665.58
2018-11-02T15:05:12.540Z,98681.37
2018-11-02T15:07:41.894Z,98688.09
2018-11-02T15:10:10.615Z,98684.31
2018-11-02T15:12:39.888Z,98687.72
2018-11-02T15:15:09.128Z,98691.24
2018-11-02T15:17:37.635Z,98681.70
2018-11-02T15:20:08.655Z,98681.86
2018-11-02T15:22:37.517Z,98684.59
2018-11-02T15:25:06.870Z,98687.90
2018-11-02T15:27:35.400Z,98685.28
2018-11-02T15:30:04.210Z,98691.55
2018-11-02T15:32:32.736Z,98688.38
2018-11-02T15:35:01.189Z,98697.13
2018-11-02T15:37:29.728Z,98700.96
2018-11-02T15:39:58.532Z,98701.97
2018-11-02T15:42:27.000Z,98707.00
2018-11-02T15:44:55.483Z,98707.26
2018-11-02T15:47:23.967Z,98710.24
2018-11-02T15:49:52.501Z,98715.35
2018-11-02T15:52:21.159Z,98725.63
2018-11-02T15:54:49.695Z,98727.84
2018-11-02T15:57:18.203Z,98720.16
2018-11-02T15:59:46.899Z,98731.75
2018-11-02T16:02:15.393Z,98733.47
2018-11-02T16:04:44.186Z,98744.02
2018-11-02T16:07:12.740Z,98753.64
2018-11-02T16:09:41.462Z,98760.61
2018-11-02T16:12:10.183Z,98756.47
2018-11-02T16:14:38.754Z,98756.41
2018-11-02T16:17:07.227Z,98754.89
2018-11-02T16:19:35.951Z,98763.67
2018-11-02T16:22:04.494Z,98766.09
2018-11-02T16:24:32.996Z,98776.02
2018-11-02T16:27:01.444Z,98776.70
2018-11-02T16:29:29.937Z,98777.80
2018-11-02T16:31:58.442Z,98780.73
2018-11-02T16:34:26.917Z,98788.82
2018-11-02T16:36:55.441Z,98788.22
2018-11-02T16:39:23.920Z,98794.70
2018-11-02T16:41:52.409Z,98796.63
2018-11-02T16:44:21.011Z,98794.48
2018-11-02T16:46:49.384Z,98789.26
2018-11-02T16:49:17.922Z,98792.43
2018-11-02T16:51:46.408Z,98794.45
2018-11-02T16:54:14.923Z,98798.95
2018-11-02T16:56:43.492Z,98800.38
2018-11-02T16:59:11.976Z,98800.16
2018-11-02T17:01:40.777Z,98802.84
2018-11-02T17:04:09.483Z,98804.36
2018-11-02T17:06:38.014Z,98810.11
2018-11-02T17:09:10.108Z,98815.45
2018-11-02T17:11:38.700Z,98815.32
2018-11-02T17:14:07.832Z,98807.33
2018-11-02T17:16:36.684Z,98818.34
2018-11-02T17:19:05.604Z,98813.92
2018-11-02T17:21:34.133Z,98816.44
2018-11-02T17:24:03.436Z,98822.03
2018-11-02T17:26:32.274Z,98828.86
2018-11-02T17:29:01.246Z,98840.44
2018-11-02T17:31:30.087Z,98843.34
2018-11-02T17:33:58.535Z,98852.95
2018-11-02T17:36:27.230Z,98814.53
2018-11-02T17:38:55.562Z,98860.05
2018-11-02T17:41:24.219Z,98860.64
2018-11-02T17:43:52.690Z,98864.87
2018-11-02T17:46:21.301Z,98858.63
2018-11-02T17:48:50.054Z,98854.73
2018-11-02T17:51:18.487Z,98855.36
2018-11-02T17:53:47.312Z,98863.31
2018-11-02T17:56:15.861Z,98864.63
2018-11-02T17:58:44.619Z,98869.08
2018-11-02T18:01:13.258Z,98871.87
2018-11-02T18:03:42.114Z,98879.94
2018-11-02T18:06:10.591Z,98890.80
2018-11-02T18:08:39.194Z,98896.18
2018-11-02T18:11:07.748Z,98892.75
2018-11-02T18:13:36.566Z,98900.12
2018-11-02T18:16:06.038Z,98899.31
2018-11-02T18:18:34.872Z,98899.92
2018-11-02T18:21:03.912Z,98901.27
2018-11-02T18:23:32.397Z,98905.97
2018-11-02T18:26:01.144Z,98912.48
2018-11-02T18:28:29.658Z,98912.08
2018-11-02T18:30:58.401Z,98913.43
2018-11-02T18:33:26.923Z,98908.37
2018-11-02T18:35:55.547Z,98914.26
2018-11-02T18:38:24.524Z,98913.72
2018-11-02T18:40:53.022Z,98916.91
2018-11-02T18:43:21.474Z,98915.82
2018-11-02T18:45:50.224Z,98920.88
2018-11-02T18:48:20.615Z,98921.28
2018-11-02T18:50:49.379Z,98923.16
2018-11-02T18:53:17.861Z,98921.36
2018-11-02T18:55:46.359Z,98925.98
2018-11-02T18:58:14.842Z,98918.94
2018-11-02T19:00:43.830Z,98922.30
2018-11-02T19:03:12.301Z,98916.19
2018-11-02T19:05:40.809Z,98920.27
2018-11-02T19:08:09.247Z,98921.21
2018-11-02T19:10:37.768Z,98922.27
2018-11-02T19:13:06.968Z,98920.11
2018-11-02T19:15:35.446Z,98916.77
2018-11-02T19:18:03.950Z,98916.41
2018-11-02T19:20:32.478Z,98918.13
2018-11-02T19:23:01.410Z,98917.15
2018-11-02T19:25:30.132Z,98931.51
2018-11-02T19:27:58.586Z,98938.80
2018-11-02T19:30:27.117Z,98948.20
2018-11-02T19:32:55.738Z,98952.00
2018-11-02T19:35:24.719Z,98951.17
2018-11-02T19:37:53.169Z,98955.64
2018-11-02T19:40:21.754Z,98956.17
2018-11-02T19:42:50.276Z,98959.52
2018-11-02T19:45:18.818Z,98958.73
2018-11-02T19:48:02.849Z,98962.04
2018-11-02T19:50:31.424Z,98968.62
2018-11-02T19:52:59.836Z,98975.20
2018-11-02T19:55:28.579Z,98987.59
2018-11-02T19:57:57.095Z,98987.30
2018-11-02T20:00:25.719Z,98989.14
2018-11-02T20:02:54.219Z,98990.36
2018-11-02T20:05:22.696Z,98986.97
2018-11-02T20:07:51.203Z,98981.81
2018-11-02T20:10:19.716Z,98984.70
2018-11-02T20:12:49.069Z,98982.45
2018-11-02T20:15:18.066Z,98987.31
2018-11-02T20:17:46.923Z,98985.86
2018-11-02T20:20:16.403Z,98985.80
2018-11-02T20:22:45.134Z,98981.02
2018-11-02T20:25:15.264Z,98988.20
2018-11-02T20:27:44.352Z,98988.06
2018-11-02T20:30:21.511Z,98992.20
2018-11-02T20:32:50.048Z,98996.83
2018-11-02T20:35:18.560Z,98996.55
2018-11-02T20:37:47.060Z,99000.27
2018-11-02T20:40:17.602Z,98995.09
2018-11-02T20:42:46.544Z,99004.08
2018-11-02T20:45:15.679Z,98995.08
2018-11-02T20:47:48.200Z,98999.86
2018-11-02T20:50:17.251Z,98996.78
2018-11-02T20:52:45.771Z,98991.38
2018-11-02T20:55:15.164Z,98984.42
2018-11-02T20:57:44.066Z,98994.61
2018-11-02T21:00:14.736Z,98991.80
2018-11-02T21:02:43.906Z,98995.29
2018-11-02T21:05:14.464Z,99003.83
2018-11-02T21:07:43.577Z,98997.44
2018-11-02T21:10:13.512Z,99005.49
2018-11-02T21:12:42.304Z,99003.23
2018-11-02T21:15:14.091Z,99006.31
2018-11-02T21:17:42.721Z,99012.64
2018-11-02T21:20:13.406Z,99012.32
2018-11-02T21:22:42.809Z,99016.52
2018-11-02T21:25:12.394Z,99014.00
2018-11-02T21:27:41.819Z,99023.17
2018-11-02T21:30:14.759Z,98978.61
2018-11-02T21:32:44.158Z,99025.85
2018-11-02T21:35:12.661Z,99030.23
2018-11-02T21:37:41.168Z,99005.23
2018-11-02T21:40:13.709Z,99033.78
2018-11-02T21:42:42.792Z,99030.96
2018-11-02T21:45:12.151Z,99032.03
2018-11-02T21:47:40.612Z,99032.50
2018-11-02T21:50:10.140Z,99028.56
2018-11-02T21:52:38.632Z,99029.42
2018-11-02T21:55:07.804Z,99025.25
2018-11-02T21:57:36.636Z,99029.22
2018-11-02T22:00:07.039Z,99022.90
2018-11-02T22:02:35.766Z,99022.22
2018-11-02T22:05:04.349Z,99028.53
2018-11-02T22:07:32.870Z,99021.62
2018-11-02T22:10:01.468Z,99027.66
2018-11-02T22:12:29.980Z,99023.08
2018-11-02T22:14:58.456Z,99032.07
2018-11-02T22:17:27.244Z,99034.58
2018-11-02T22:19:56.041Z,99037.66
2018-11-02T22:22:24.592Z,99038.16
2018-11-02T22:24:53.287Z,99037.22
2018-11-02T22:27:21.912Z,99038.17
2018-11-02T22:29:50.354Z,99041.71
2018-11-02T22:32:19.024Z,99040.20
2018-11-02T22:34:47.543Z,99037.66
2018-11-02T22:37:16.114Z,99038.39
2018-11-02T22:39:44.692Z,99038.76
2018-11-02T22:42:13.191Z,99038.41
2018-11-02T22:44:42.075Z,99039.45
2018-11-02T22:47:10.863Z,99036.75
2018-11-02T22:49:39.321Z,99039.02
2018-11-02T22:52:07.842Z,99031.38
2018-11-02T22:54:36.522Z,99032.84
2018-11-02T22:57:05.063Z,99039.33
2018-11-02T22:59:33.571Z,99042.51
2018-11-02T23:02:02.097Z,99039.23
2018-11-02T23:04:30.766Z,99044.09
2018-11-02T23:06:59.312Z,99050.72
2018-11-02T23:09:27.814Z,99041.24
2018-11-02T23:11:56.330Z,99044.61
2018-11-02T23:14:24.799Z,99038.41
2018-11-02T23:16:53.337Z,99049.98
2018-11-02T23:19:21.877Z,99051.55
2018-11-02T23:21:50.300Z,99054.20
2018-11-02T23:24:18.859Z,99056.03
2018-11-02T23:26:47.317Z,99058.34
2018-11-02T23:29:15.850Z,99062.59
2018-11-02T23:31:44.360Z,99060.93
2018-11-02T23:34:12.820Z,99053.35
2018-11-02T23:36:41.345Z,99060.41
2018-11-02T23:39:10.253Z,99059.80
2018-11-02T23:41:38.886Z,99056.59
2018-11-02T23:44:07.384Z,99061.34
2018-11-02T23:46:35.915Z,99065.41
2018-11-02T23:49:04.455Z,99064.55
2018-11-02T23:51:32.951Z,99067.72
2018-11-02T23:54:01.706Z,99053.25
2018-11-02T23:56:30.276Z,99064.56
2018-11-02T23:58:58.795Z,99066.70
